createdAt,value
2022-10-31T00:01:39.496Z,15.19
2022-10-31T00:04:07.573Z,15.25
2022-10-31T00:06:35.323Z,14.92
2022-10-31T00:09:05.067Z,14.95
2022-10-31T00:11:34.948Z,14.95
2022-10-31T00:14:07.009Z,15.10
2022-10-31T00:16:45.077Z,15.29
2022-10-31T00:19:12.959Z,15.36
2022-10-31T00:21:40.935Z,15.27
2022-10-31T00:24:09.018Z,15.26
2022-10-31T00:26:36.773Z,15.04
2022-10-31T00:29:07.329Z,14.97
2022-10-31T00:31:35.063Z,15.10
2022-10-31T00:34:04.074Z,15.18
2022-10-31T00:36:31.924Z,15.37
2022-10-31T00:38:59.927Z,15.48
2022-10-31T00:41:27.692Z,14.68
2022-10-31T00:43:56.799Z,14.26
2022-10-31T00:46:24.521Z,14.10
2022-10-31T00:48:52.239Z,14.58
2022-10-31T00:51:19.994Z,14.86
2022-10-31T00:53:47.721Z,14.85
2022-10-31T00:56:15.691Z,14.74
2022-10-31T00:58:43.736Z,14.81
2022-10-31T01:01:11.538Z,14.81
2022-10-31T01:03:40.974Z,14.90
2022-10-31T01:06:14.060Z,14.95
2022-10-31T01:08:41.994Z,14.56
2022-10-31T01:11:24.431Z,14.38
2022-10-31T01:13:54.163Z,14.11
2022-10-31T01:16:24.685Z,14.30
2022-10-31T01:18:57.579Z,14.49
2022-10-31T01:21:29.609Z,14.75
2022-10-31T01:24:03.281Z,14.86
2022-10-31T01:26:33.113Z,15.10
2022-10-31T01:29:04.678Z,14.75
2022-10-31T01:31:38.748Z,14.65
2022-10-31T01:34:07.928Z,14.80
2022-10-31T01:36:38.848Z,14.92
2022-10-31T01:39:09.828Z,14.63
2022-10-31T01:41:44.628Z,14.39
2022-10-31T01:44:15.310Z,14.35
2022-10-31T01:47:00.488Z,14.42
2022-10-31T07:36:49.520Z,15.41
2022-10-31T07:40:19.848Z,15.73
2022-10-31T07:58:08.256Z,18.77
2022-10-31T08:03:00.025Z,18.21
2022-10-31T08:12:02.994Z,20.82
2022-10-31T08:14:35.425Z,22.78
2022-10-31T08:17:07.561Z,23.28
2022-10-31T08:19:55.643Z,23.45
2022-10-31T08:23:13.218Z,22.19
2022-10-31T08:25:51.287Z,23.81
2022-10-31T08:31:42.591Z,23.15
2022-10-31T08:34:38.230Z,22.75
2022-10-31T08:37:24.146Z,24.49
2022-10-31T08:39:55.010Z,24.46
2022-10-31T08:42:23.261Z,27.05
2022-10-31T08:44:51.152Z,26.39
2022-10-31T08:47:22.072Z,24.80
2022-10-31T08:49:49.658Z,24.74
2022-10-31T08:52:17.219Z,25.57
2022-10-31T08:54:47.807Z,27.48
2022-10-31T08:57:34.126Z,26.32
2022-10-31T09:00:01.801Z,24.61
2022-10-31T09:02:47.917Z,25.53
2022-10-31T09:05:15.578Z,24.81
2022-10-31T09:07:43.268Z,24.15
2022-10-31T09:10:10.761Z,24.95
2022-10-31T09:12:39.327Z,24.42
2022-10-31T09:15:29.914Z,25.72
2022-10-31T09:18:11.929Z,26.04
2022-10-31T09:20:48.141Z,25.96
2022-10-31T09:23:23.787Z,25.80
2022-10-31T09:25:52.784Z,27.01
2022-10-31T09:28:38.516Z,25.21
2022-10-31T09:31:16.670Z,23.61
2022-10-31T09:34:02.630Z,23.27
2022-10-31T09:36:54.037Z,26.16
2022-10-31T09:39:25.085Z,26.25
2022-10-31T09:42:07.070Z,27.73
2022-10-31T09:44:45.317Z,27.55
2022-10-31T09:47:35.536Z,26.17
2022-10-31T09:50:34.012Z,24.38
2022-10-31T09:53:29.256Z,24.75
2022-10-31T09:55:58.349Z,23.36
2022-10-31T09:58:29.450Z,25.64
2022-10-31T10:01:01.610Z,25.14
2022-10-31T10:03:47.255Z,23.04
2022-10-31T10:06:40.429Z,23.70
2022-10-31T10:09:37.555Z,24.67
2022-10-31T10:12:43.333Z,25.85
2022-10-31T10:15:19.813Z,26.04
2022-10-31T10:18:01.860Z,25.44
2022-10-31T10:20:29.412Z,25.71
2022-10-31T10:23:42.173Z,25.92
2022-10-31T10:26:21.630Z,24.81
2022-10-31T10:29:31.395Z,25.24
2022-10-31T10:32:31.337Z,25.25
2022-10-31T10:39:56.921Z,25.39
2022-10-31T10:43:04.745Z,24.27
2022-10-31T10:49:53.384Z,24.86
2022-10-31T10:52:44.599Z,23.75
2022-10-31T10:55:38.337Z,24.14
2022-10-31T10:58:09.211Z,25.35
2022-10-31T11:01:12.667Z,25.88
2022-10-31T11:03:43.731Z,25.19
2022-10-31T11:06:27.663Z,25.19
2022-10-31T11:08:55.428Z,24.41
2022-10-31T11:11:32.001Z,25.00
2022-10-31T11:14:06.454Z,24.86
2022-10-31T11:16:41.243Z,23.41
2022-10-31T11:19:41.968Z,24.33
2022-10-31T11:22:17.493Z,24.85
2022-10-31T11:24:45.292Z,25.18
2022-10-31T11:27:16.975Z,25.50
2022-10-31T11:29:45.710Z,25.64
2022-10-31T11:32:27.134Z,25.71
2022-10-31T11:35:00.586Z,25.48
2022-10-31T11:37:30.952Z,25.49
2022-10-31T11:40:01.442Z,25.31
2022-10-31T11:42:36.049Z,25.91
2022-10-31T11:45:15.328Z,25.44
2022-10-31T11:47:47.652Z,25.12
2022-10-31T11:50:39.681Z,24.98
2022-10-31T11:53:17.485Z,25.12
2022-10-31T11:56:21.199Z,24.67
2022-10-31T11:59:18.389Z,25.22
2022-10-31T12:01:51.493Z,25.37
2022-10-31T12:04:22.259Z,25.50
2022-10-31T12:06:51.966Z,25.90
2022-10-31T12:13:29.923Z,25.06
2022-10-31T12:16:06.587Z,25.35
2022-10-31T12:18:43.636Z,25.34
2022-10-31T12:21:42.241Z,25.15
2022-10-31T12:24:32.943Z,25.10
2022-10-31T12:27:09.471Z,25.72
2022-10-31T12:30:11.167Z,25.25
2022-10-31T12:32:55.869Z,25.61
2022-10-31T12:35:41.181Z,25.76
2022-10-31T12:38:31.531Z,26.14
2022-10-31T12:41:15.927Z,26.16
2022-10-31T12:43:49.787Z,26.19
2022-10-31T12:46:46.318Z,26.10
2022-10-31T12:49:54.405Z,26.14
2022-10-31T12:52:50.486Z,25.84
2022-10-31T12:55:39.039Z,25.71
2022-10-31T12:58:25.514Z,25.76
2022-10-31T13:01:10.929Z,25.47
2022-10-31T13:03:47.405Z,25.63
2022-10-31T13:06:22.242Z,25.69
2022-10-31T13:08:55.489Z,25.85
2022-10-31T13:11:31.786Z,25.74
2022-10-31T13:14:16.160Z,26.05
2022-10-31T13:16:51.129Z,25.91
2022-10-31T13:19:36.310Z,25.97
2022-10-31T13:22:12.622Z,26.08
2022-10-31T13:24:53.262Z,26.28
2022-10-31T13:27:37.240Z,25.96
2022-10-31T13:30:07.452Z,26.05
2022-10-31T13:32:44.676Z,25.85
2022-10-31T13:35:20.438Z,25.91
2022-10-31T13:38:15.753Z,26.32
2022-10-31T13:41:16.426Z,26.11
2022-10-31T13:44:05.358Z,26.38
2022-10-31T13:46:32.854Z,26.37
2022-10-31T13:49:00.981Z,26.14
2022-10-31T13:51:46.280Z,25.76
2022-10-31T13:54:32.606Z,25.64
2022-10-31T13:57:00.837Z,25.87
2022-10-31T13:59:30.381Z,25.84
2022-10-31T14:02:02.027Z,25.60
2022-10-31T14:04:46.269Z,25.58
2022-10-31T14:07:22.016Z,25.48
2022-10-31T14:09:56.700Z,25.58
2022-10-31T14:12:44.154Z,25.72
2022-10-31T14:15:21.244Z,25.62
2022-10-31T14:17:52.606Z,24.96
2022-10-31T14:20:20.668Z,25.14
2022-10-31T14:22:48.282Z,25.32
2022-10-31T14:25:34.333Z,25.32
2022-10-31T14:28:18.542Z,25.10
2022-10-31T14:30:54.464Z,25.16
2022-10-31T14:33:25.354Z,25.05
2022-10-31T14:36:01.782Z,25.11
2022-10-31T14:38:37.220Z,25.05
2022-10-31T14:41:33.330Z,25.17
2022-10-31T14:44:22.599Z,25.00
2022-10-31T14:47:32.596Z,24.91
2022-10-31T14:50:39.435Z,24.89
2022-10-31T14:53:14.853Z,24.79
2022-10-31T14:55:49.629Z,24.69
2022-10-31T14:58:40.521Z,24.76
2022-10-31T15:01:08.845Z,24.41
2022-10-31T15:03:44.758Z,24.43
2022-10-31T15:06:26.669Z,24.37
2022-10-31T15:08:58.264Z,24.38
2022-10-31T15:11:27.722Z,24.50
2022-10-31T15:13:57.655Z,24.29
2022-10-31T15:19:03.685Z,24.14
2022-10-31T15:21:32.480Z,24.07
2022-10-31T15:24:02.790Z,24.20
2022-10-31T15:26:38.889Z,24.01
2022-10-31T15:29:15.785Z,23.72
2022-10-31T15:32:16.811Z,23.60
2022-10-31T15:34:45.224Z,23.47
2022-10-31T15:37:15.769Z,23.56
2022-10-31T15:39:44.699Z,23.50
2022-10-31T15:42:33.949Z,23.37
2022-10-31T15:45:06.393Z,23.19
2022-10-31T15:47:34.652Z,22.87
2022-10-31T15:50:04.252Z,22.73
2022-10-31T15:52:48.012Z,22.55
2022-10-31T15:55:24.296Z,22.58
2022-10-31T15:58:05.847Z,22.50
2022-10-31T16:00:36.242Z,22.29
2022-10-31T16:03:06.145Z,22.35
2022-10-31T16:06:00.624Z,22.21
2022-10-31T16:08:30.940Z,22.08
2022-10-31T16:11:07.297Z,22.07
2022-10-31T16:13:39.096Z,21.92
2022-10-31T16:16:45.888Z,21.77
2022-10-31T16:19:06.225Z,21.57
2022-10-31T16:21:39.405Z,21.41
2022-10-31T16:24:31.937Z,21.31
2022-10-31T16:27:08.431Z,20.91
2022-10-31T16:29:47.305Z,20.61
2022-10-31T16:32:37.726Z,20.61
2022-10-31T16:35:11.079Z,20.50
2022-10-31T16:37:42.251Z,20.38
2022-10-31T16:40:14.974Z,20.22
2022-10-31T16:42:44.332Z,20.16
2022-10-31T16:45:19.623Z,20.22
2022-10-31T16:47:47.925Z,19.93
2022-10-31T16:50:24.504Z,19.95
2022-10-31T16:53:13.727Z,19.90
2022-10-31T16:55:47.610Z,19.79
2022-10-31T16:58:24.191Z,19.90
2022-10-31T17:00:53.525Z,19.63
2022-10-31T17:03:21.341Z,19.74
2022-10-31T17:05:49.054Z,19.71
2022-10-31T17:08:16.752Z,19.97
2022-10-31T17:10:46.182Z,19.73
2022-10-31T17:13:39.837Z,20.01
2022-10-31T17:16:07.659Z,20.16
2022-10-31T17:18:35.490Z,19.95
2022-10-31T17:21:06.247Z,20.18
2022-10-31T17:23:33.825Z,20.03
2022-10-31T17:26:01.366Z,20.04
2022-10-31T17:28:28.947Z,19.90
2022-10-31T17:30:59.213Z,19.92
2022-10-31T17:33:27.015Z,19.88
2022-10-31T17:35:56.824Z,19.93
2022-10-31T17:38:24.646Z,19.81
2022-10-31T17:40:52.187Z,19.60
2022-10-31T17:43:19.839Z,19.44
2022-10-31T17:45:47.394Z,19.34
2022-10-31T17:48:15.009Z,19.55
2022-10-31T17:50:42.771Z,19.61
2022-10-31T17:53:10.183Z,19.85
2022-10-31T17:55:37.896Z,20.00
2022-10-31T17:58:05.903Z,19.96
2022-10-31T18:00:33.826Z,19.79
2022-10-31T18:03:03.892Z,19.79
2022-10-31T18:05:32.243Z,19.69
2022-10-31T18:08:03.695Z,19.70
2022-10-31T18:10:32.202Z,19.67
2022-10-31T18:13:03.023Z,19.48
2022-10-31T18:15:30.862Z,19.33
2022-10-31T18:17:58.517Z,19.27
2022-10-31T18:20:26.305Z,19.33
2022-10-31T18:22:56.641Z,19.13
2022-10-31T18:25:24.251Z,18.92
2022-10-31T18:27:51.895Z,19.03
2022-10-31T18:30:19.716Z,19.14
2022-10-31T18:32:51.303Z,19.15
2022-10-31T18:35:19.050Z,18.85
2022-10-31T18:37:46.715Z,18.72
2022-10-31T18:40:36.156Z,18.51
2022-10-31T18:43:08.238Z,18.39
2022-10-31T18:45:53.709Z,18.53
2022-10-31T18:48:37.005Z,18.65
2022-10-31T18:51:21.338Z,18.94
2022-10-31T18:53:54.100Z,18.67
2022-10-31T18:56:22.473Z,18.47
2022-10-31T18:58:50.904Z,18.49
2022-10-31T19:01:20.310Z,18.33
2022-10-31T19:03:54.241Z,18.26
2022-10-31T19:06:22.896Z,18.21
2022-10-31T19:09:01.256Z,18.11
2022-10-31T19:11:44.353Z,18.03
2022-10-31T19:14:14.822Z,17.96
2022-10-31T19:16:42.645Z,18.06
2022-10-31T19:19:11.937Z,17.97
2022-10-31T19:21:39.460Z,17.92
2022-10-31T19:24:07.218Z,17.78
2022-10-31T19:26:35.106Z,17.78
2022-10-31T19:29:02.680Z,17.81
2022-10-31T19:31:34.521Z,18.06
2022-10-31T19:34:04.715Z,17.91
2022-10-31T19:36:32.535Z,17.89
2022-10-31T19:39:02.587Z,17.84
2022-10-31T19:41:45.080Z,17.82
2022-10-31T19:44:15.121Z,17.85
2022-10-31T19:46:53.250Z,17.69
2022-10-31T19:52:10.160Z,17.68
2022-10-31T19:54:37.799Z,17.64
2022-10-31T19:57:05.447Z,17.82
2022-10-31T19:59:38.270Z,17.74
2022-10-31T20:02:19.714Z,17.57
2022-10-31T20:04:49.749Z,17.45
2022-10-31T20:07:17.393Z,17.58
2022-10-31T20:09:46.372Z,17.53
2022-10-31T20:12:14.049Z,17.40
2022-10-31T20:14:43.145Z,17.18
2022-10-31T20:17:10.836Z,16.98
2022-10-31T20:19:38.677Z,17.11
2022-10-31T20:22:20.151Z,17.00
2022-10-31T20:24:47.788Z,17.01
2022-10-31T20:27:17.971Z,16.86
2022-10-31T20:29:54.710Z,16.93
2022-10-31T20:32:22.428Z,16.90
2022-10-31T20:34:50.632Z,16.95
2022-10-31T20:37:18.288Z,17.04
2022-10-31T20:39:46.108Z,17.04
2022-10-31T20:42:24.852Z,16.84
2022-10-31T20:44:52.433Z,16.96
2022-10-31T20:47:23.322Z,17.23
2022-10-31T20:49:52.585Z,17.23
2022-10-31T20:52:20.017Z,17.12
2022-10-31T20:54:47.488Z,16.92
2022-10-31T20:58:03.039Z,16.80
2022-10-31T21:00:51.557Z,16.82
2022-10-31T21:03:19.873Z,17.00
2022-10-31T21:06:02.174Z,17.13
2022-10-31T21:08:32.900Z,17.15
2022-10-31T21:11:01.288Z,17.20
2022-10-31T21:13:29.490Z,17.26
2022-10-31T21:16:04.973Z,17.15
2022-10-31T21:18:35.074Z,16.95
2022-10-31T21:21:12.132Z,16.88
2022-10-31T21:27:27.434Z,16.65
2022-10-31T21:30:18.454Z,16.88
2022-10-31T21:32:58.915Z,16.87
2022-10-31T21:35:48.090Z,16.93
2022-10-31T21:39:35.674Z,17.03
2022-10-31T21:42:23.741Z,17.07
2022-10-31T21:44:57.812Z,17.03
2022-10-31T21:47:44.583Z,16.96
2022-10-31T21:50:15.016Z,16.64
2022-10-31T21:52:43.223Z,16.14
2022-10-31T21:55:15.704Z,15.97
2022-10-31T21:58:05.400Z,16.63
2022-10-31T22:04:44.269Z,16.53
2022-10-31T22:07:21.764Z,16.29
2022-10-31T22:10:27.492Z,16.24
2022-10-31T22:13:02.783Z,16.22
2022-10-31T22:15:34.962Z,16.30
2022-10-31T22:18:06.404Z,16.12
2022-10-31T22:20:45.186Z,15.99
2022-10-31T22:23:17.635Z,15.99
2022-10-31T22:25:45.195Z,15.96
2022-10-31T22:28:15.322Z,15.90
2022-10-31T22:30:51.616Z,15.46
2022-10-31T22:33:26.916Z,15.70
2022-10-31T22:35:58.237Z,15.74
2022-10-31T22:38:29.429Z,15.79
2022-10-31T22:41:02.925Z,15.75
2022-10-31T22:43:30.651Z,15.66
2022-10-31T22:46:04.903Z,15.68
2022-10-31T22:48:36.544Z,15.65
2022-10-31T22:51:11.296Z,15.74
2022-10-31T22:54:06.010Z,15.67
2022-10-31T22:56:47.476Z,15.70
2022-10-31T22:59:19.652Z,15.65
2022-10-31T23:01:55.157Z,15.68
2022-10-31T23:05:25.750Z,15.71
2022-10-31T23:08:01.829Z,15.61
2022-10-31T23:10:35.806Z,15.70
2022-10-31T23:13:53.363Z,15.53
2022-10-31T23:16:22.404Z,15.52
2022-10-31T23:18:52.465Z,15.42
2022-10-31T23:21:43.005Z,15.49
2022-10-31T23:24:13.877Z,15.59
2022-10-31T23:27:00.372Z,15.43
2022-10-31T23:29:30.383Z,15.70
2022-10-31T23:31:59.495Z,15.54
2022-10-31T23:34:29.578Z,15.51
2022-10-31T23:39:36.235Z,15.63
2022-10-31T23:42:06.343Z,15.65
2022-10-31T23:44:35.391Z,15.60
2022-10-31T23:47:07.901Z,15.37
2022-10-31T23:49:40.381Z,15.34
2022-10-31T23:52:08.749Z,15.58
2022-10-31T23:54:36.492Z,15.76
2022-10-31T23:57:06.632Z,15.88
2022-10-31T23:59:34.386Z,15.79
